Guapiles, Costa Rica
Current Conditions -  °F | °C
As of 6:00 PM on Saturday 20 Dec 2014 (Local Time) from MROC Reporting Station
Few Clouds Few Clouds  
Wind Chill: 72°   Ceiling: Unl
Heat Index: 72°   Visibility: 6mi
Dew Point: 57°   Wind: 16mph
Humidity: 60%   Direction: 80°E
Pressure: 29.98"   Gusts: NA
Location:  10.21°N, 83.79°W
Report Text: MROC 210000Z 08014KT 9999 FEW030 22/14 A2998 NOSIG
Loading
Personal Weather Stations






























Interactive Weather Map New forecast layout! Learn more

10-Day Weather Forecast

Advertisements
Track Severe Weather on mobile